Darstellungsparameter: Aktuell verwendete Einstellungen:
Skalierung der Graphiken ... ?
xyx+y,   Skalierungsfaktor:      Skalierung: Modus: x, Faktor: 1
Darstellungszeitraum ... ?
Vom - - bis: - -   Zeitraum: 24.12.2019 - 24.12.2019
Min/Max/Avg-Anzeige ... ?
Zeige MMA aktuell
Zeige MMA Monat
Zeige MMA alles
Zeige --A aktuell
Zeige --A Monat
Zeige --A alles
Keine MMA-Anzeige
MMA:
Average (ber die Originaldaten)
MMA-Basis: 24.12.2019 - 24.12.2019
Quicknavigation für Darstellung... ?
Tage:      1T, 2T, 3T, 5T -1T -2T -3T -5T +1T +2T +3T +5T
Wochen: 1W, 2W, 3W -1W -2W -3W +1W +2W +3W
Monate: 1M, 3M, 6M -1M -3M -6M +1M +3M +6M
Jahre:    1J, 3J, 5J, 10J -1J -3J -5J -10J +1J +3J +5J +10J
Nutze für die Darstellung ... ?
Originaldaten oder Mittelwerte auf ...
Stundenbasis Tagesbasis Wochenbasis
Monatsbasis Jahresbasis      Datenbasis: Original-Daten
Darstellen als:
Statistik (Auto) Statistik J:M      Darstellung:
Zur Graphik,    zurück zur Übersicht aller Sensoren.
 
Tabellarische Datenbersicht: ?
 
Sensor: Nr:Datum:Temp:Abs-Feuchte:Windchill:Wind:
Aussen-T/F 1 24-12-2019 00:00:00 5.6 C 6.5 g/m*3 5.6 C 4.8 km/h
2 24-12-2019 00:05:00 5.7 C 6.62 g/m*3 5.7 C 4.8 km/h
3 24-12-2019 00:10:00 5.8 C 6.66 g/m*3 5.8 C 4.8 km/h
4 24-12-2019 00:15:00 5.9 C 6.71 g/m*3 5.9 C 4.8 km/h
5 24-12-2019 00:20:00 6 C 6.75 g/m*3 6 C 3.2 km/h
6 24-12-2019 00:25:00 6.1 C 6.79 g/m*3 6.1 C 1.6 km/h
7 24-12-2019 00:30:00 6.1 C 6.79 g/m*3 6.1 C 1.6 km/h
8 24-12-2019 00:35:00 6.2 C 6.84 g/m*3 4.98 C 6.4 km/h
9 24-12-2019 00:40:00 6.2 C 6.84 g/m*3 6.2 C 3.2 km/h
10 24-12-2019 00:45:00 6.3 C 6.88 g/m*3 6.3 C 3.2 km/h
11 24-12-2019 00:50:00 6.3 C 6.88 g/m*3 6.3 C 1.6 km/h
12 24-12-2019 00:55:00 6.3 C 6.88 g/m*3 6.3 C 3.2 km/h
13 24-12-2019 01:00:00 6.3 C 6.88 g/m*3 6.3 C 1.6 km/h
14 24-12-2019 01:05:00 6.3 C 6.81 g/m*3 6.3 C 0 km/h
15 24-12-2019 01:10:00 6.3 C 6.81 g/m*3 6.3 C 3.2 km/h
16 24-12-2019 01:15:00 6.2 C 6.77 g/m*3 6.2 C 4.8 km/h
17 24-12-2019 01:20:00 6.2 C 6.77 g/m*3 6.2 C 4.8 km/h
18 24-12-2019 01:25:00 6.2 C 6.77 g/m*3 4.52 C 8.1 km/h
19 24-12-2019 01:30:00 6.3 C 6.88 g/m*3 4.64 C 8.1 km/h
20 24-12-2019 01:35:00 6.4 C 6.85 g/m*3 6.4 C 4.8 km/h
21 24-12-2019 01:40:00 6.5 C 6.9 g/m*3 6.5 C 1.6 km/h
22 24-12-2019 01:45:00 6.4 C 6.85 g/m*3 6.4 C 1.6 km/h
23 24-12-2019 01:50:00 6.4 C 6.78 g/m*3 6.4 C 1.6 km/h
24 24-12-2019 01:55:00 6.4 C 6.85 g/m*3 6.4 C 0 km/h
25 24-12-2019 02:00:00 6.4 C 6.85 g/m*3 6.4 C 0 km/h
Sensor: Nr:Datum:Temp:Abs-Feuchte:Windchill:Wind:
Aussen-T/F 26 24-12-2019 02:05:00 6.4 C 6.85 g/m*3 6.4 C 0 km/h
27 24-12-2019 02:10:00 6.4 C 6.85 g/m*3 6.4 C 0 km/h
28 24-12-2019 02:15:00 6.4 C 6.85 g/m*3 6.4 C 0 km/h
29 24-12-2019 02:20:00 6.4 C 6.85 g/m*3 6.4 C 0 km/h
30 24-12-2019 02:25:00 6.4 C 6.85 g/m*3 6.4 C 0 km/h
31 24-12-2019 02:30:00 6.4 C 6.85 g/m*3 6.4 C 0 km/h
32 24-12-2019 02:35:00 6.3 C 6.81 g/m*3 6.3 C 0 km/h
33 24-12-2019 02:40:00 6.3 C 6.88 g/m*3 6.3 C 0 km/h
34 24-12-2019 02:45:00 6.3 C 6.81 g/m*3 6.3 C 1.6 km/h
35 24-12-2019 02:50:00 6.4 C 6.93 g/m*3 6.4 C 4.8 km/h
36 24-12-2019 02:55:00 6.6 C 7.02 g/m*3 4.63 C 9.7 km/h
37 24-12-2019 03:00:00 6.7 C 6.99 g/m*3 3.92 C 14.5 km/h
38 24-12-2019 03:05:00 6.8 C 6.96 g/m*3 5.67 C 6.4 km/h
39 24-12-2019 03:10:00 6.9 C 6.93 g/m*3 6.9 C 1.6 km/h
40 24-12-2019 03:15:00 6.8 C 6.88 g/m*3 6.8 C 4.8 km/h
41 24-12-2019 03:20:00 6.7 C 6.84 g/m*3 6.7 C 3.2 km/h
42 24-12-2019 03:25:00 6.6 C 6.79 g/m*3 6.6 C 3.2 km/h
43 24-12-2019 03:30:00 6.4 C 6.71 g/m*3 5.21 C 6.4 km/h
44 24-12-2019 03:35:00 6.4 C 6.71 g/m*3 6.4 C 4.8 km/h
45 24-12-2019 03:40:00 6.5 C 6.82 g/m*3 4.51 C 9.7 km/h
46 24-12-2019 03:45:00 6.4 C 6.71 g/m*3 6.4 C 3.2 km/h
47 24-12-2019 03:50:00 6.3 C 6.66 g/m*3 6.3 C 1.6 km/h
48 24-12-2019 03:55:00 6.2 C 6.62 g/m*3 6.2 C 1.6 km/h
49 24-12-2019 04:00:00 6 C 6.53 g/m*3 6 C 3.2 km/h
50 24-12-2019 04:05:00 5.9 C 6.56 g/m*3 5.9 C 3.2 km/h
Sensor: Nr:Datum:Temp:Abs-Feuchte:Windchill:Wind:
Aussen-T/F 51 24-12-2019 04:10:00 5.9 C 6.63 g/m*3 5.9 C 1.6 km/h
52 24-12-2019 04:15:00 5.9 C 6.63 g/m*3 5.9 C 0 km/h
53 24-12-2019 04:20:00 5.9 C 6.63 g/m*3 5.9 C 0 km/h
54 24-12-2019 04:25:00 6 C 6.68 g/m*3 6 C 1.6 km/h
55 24-12-2019 04:30:00 6 C 6.75 g/m*3 6 C 0 km/h
56 24-12-2019 04:35:00 5.9 C 6.63 g/m*3 5.9 C 0 km/h
57 24-12-2019 04:40:00 5.9 C 6.63 g/m*3 5.9 C 4.8 km/h
58 24-12-2019 04:45:00 5.8 C 6.59 g/m*3 5.8 C 1.6 km/h
59 24-12-2019 04:50:00 5.8 C 6.66 g/m*3 5.8 C 1.6 km/h
60 24-12-2019 04:55:00 5.9 C 6.71 g/m*3 5.9 C 3.2 km/h
61 24-12-2019 05:00:00 5.9 C 6.71 g/m*3 5.9 C 3.2 km/h
62 24-12-2019 05:05:00 5.9 C 6.71 g/m*3 5.9 C 3.2 km/h
63 24-12-2019 05:10:00 6 C 6.75 g/m*3 6 C 0 km/h
64 24-12-2019 05:15:00 5.9 C 6.71 g/m*3 5.9 C 1.6 km/h
65 24-12-2019 05:20:00 5.9 C 6.71 g/m*3 5.9 C 3.2 km/h
66 24-12-2019 05:25:00 5.8 C 6.66 g/m*3 5.8 C 0 km/h
67 24-12-2019 05:30:00 5.7 C 6.62 g/m*3 5.7 C 4.8 km/h
68 24-12-2019 05:35:00 5.8 C 6.66 g/m*3 5.8 C 3.2 km/h
69 24-12-2019 05:40:00 5.7 C 6.62 g/m*3 5.7 C 1.6 km/h
70 24-12-2019 05:45:00 5.6 C 6.57 g/m*3 5.6 C 1.6 km/h
71 24-12-2019 05:50:00 5.5 C 6.46 g/m*3 5.5 C 1.6 km/h
72 24-12-2019 05:55:00 5.5 C 6.53 g/m*3 5.5 C 3.2 km/h
73 24-12-2019 06:00:00 5.4 C 6.49 g/m*3 5.4 C 3.2 km/h
74 24-12-2019 06:05:00 5.4 C 6.49 g/m*3 5.4 C 0 km/h
75 24-12-2019 06:10:00 5.3 C 6.45 g/m*3 5.3 C 0 km/h
Sensor: Nr:Datum:Temp:Abs-Feuchte:Windchill:Wind:
Aussen-T/F 76 24-12-2019 06:15:00 5.3 C 6.45 g/m*3 5.3 C 0 km/h
77 24-12-2019 06:20:00 5.3 C 6.45 g/m*3 5.3 C 0 km/h
78 24-12-2019 06:25:00 5.3 C 6.52 g/m*3 5.3 C 0 km/h
79 24-12-2019 06:30:00 5.3 C 6.52 g/m*3 5.3 C 0 km/h
80 24-12-2019 06:35:00 5.3 C 6.52 g/m*3 5.3 C 0 km/h
81 24-12-2019 06:40:00 5.2 C 6.47 g/m*3 5.2 C 0 km/h
82 24-12-2019 06:45:00 5.2 C 6.47 g/m*3 5.2 C 0 km/h
83 24-12-2019 06:50:00 5.2 C 6.47 g/m*3 5.2 C 3.2 km/h
84 24-12-2019 06:55:00 5.2 C 6.47 g/m*3 5.2 C 1.6 km/h
85 24-12-2019 07:00:00 5.2 C 6.47 g/m*3 5.2 C 0 km/h
86 24-12-2019 07:05:00 5.2 C 6.47 g/m*3 5.2 C 0 km/h
87 24-12-2019 07:10:00 5.3 C 6.52 g/m*3 5.3 C 0 km/h
88 24-12-2019 07:15:00 5.3 C 6.52 g/m*3 5.3 C 0 km/h
89 24-12-2019 07:20:00 5.4 C 6.63 g/m*3 5.4 C 0 km/h
90 24-12-2019 07:25:00 5.6 C 6.72 g/m*3 5.6 C 0 km/h
91 24-12-2019 07:30:00 5.7 C 6.69 g/m*3 5.7 C 0 km/h
92 24-12-2019 07:35:00 5.8 C 6.73 g/m*3 5.8 C 0 km/h
93 24-12-2019 07:40:00 5.9 C 6.78 g/m*3 5.9 C 0 km/h
94 24-12-2019 07:45:00 5.9 C 6.78 g/m*3 5.9 C 4.8 km/h
95 24-12-2019 07:50:00 6 C 6.75 g/m*3 6 C 0 km/h
96 24-12-2019 07:55:00 6.1 C 6.79 g/m*3 6.1 C 3.2 km/h
97 24-12-2019 08:00:00 6.2 C 6.84 g/m*3 6.2 C 0 km/h
98 24-12-2019 08:05:00 6.3 C 6.88 g/m*3 6.3 C 0 km/h
99 24-12-2019 08:10:00 6.3 C 6.81 g/m*3 6.3 C 1.6 km/h
100 24-12-2019 08:15:00 6.3 C 6.81 g/m*3 6.3 C 0 km/h
Sensor: Nr:Datum:Temp:Abs-Feuchte:Windchill:Wind:
Aussen-T/F 101 24-12-2019 08:20:00 6.4 C 6.78 g/m*3 6.4 C 1.6 km/h
102 24-12-2019 08:25:00 6.5 C 6.82 g/m*3 6.5 C 3.2 km/h
103 24-12-2019 08:30:00 6.6 C 6.87 g/m*3 6.6 C 0 km/h
104 24-12-2019 08:35:00 6.7 C 6.91 g/m*3 6.7 C 1.6 km/h
105 24-12-2019 08:40:00 6.7 C 6.91 g/m*3 6.7 C 0 km/h
106 24-12-2019 08:45:00 6.8 C 6.88 g/m*3 6.8 C 0 km/h
107 24-12-2019 08:50:00 6.8 C 6.88 g/m*3 6.8 C 4.8 km/h
108 24-12-2019 08:55:00 6.8 C 6.88 g/m*3 6.8 C 1.6 km/h
109 24-12-2019 09:00:00 6.9 C 6.85 g/m*3 6.9 C 0 km/h
110 24-12-2019 09:05:00 7 C 6.9 g/m*3 7 C 3.2 km/h
111 24-12-2019 09:10:00 7.1 C 6.94 g/m*3 7.1 C 4.8 km/h
112 24-12-2019 09:15:00 7.2 C 6.99 g/m*3 7.2 C 4.8 km/h
113 24-12-2019 09:20:00 7.2 C 6.99 g/m*3 7.2 C 3.2 km/h
114 24-12-2019 09:25:00 7.3 C 6.95 g/m*3 5.81 C 8.1 km/h
115 24-12-2019 09:30:00 7.3 C 6.95 g/m*3 7.3 C 3.2 km/h
116 24-12-2019 09:35:00 7.4 C 7 g/m*3 6.37 C 6.4 km/h
117 24-12-2019 09:40:00 7.4 C 7 g/m*3 7.4 C 1.6 km/h
118 24-12-2019 09:45:00 7.4 C 7 g/m*3 7.4 C 4.8 km/h
119 24-12-2019 09:50:00 7.4 C 7 g/m*3 5.93 C 8.1 km/h
120 24-12-2019 09:55:00 7.4 C 7 g/m*3 5.93 C 8.1 km/h
121 24-12-2019 10:00:00 7.4 C 7.08 g/m*3 5.93 C 8.1 km/h
122 24-12-2019 10:05:00 7.4 C 7.08 g/m*3 7.4 C 3.2 km/h
123 24-12-2019 10:10:00 7.3 C 7.11 g/m*3 7.3 C 1.6 km/h
124 24-12-2019 10:15:00 7.3 C 7.03 g/m*3 7.3 C 4.8 km/h
125 24-12-2019 10:20:00 7.3 C 7.11 g/m*3 7.3 C 3.2 km/h
Sensor: Nr:Datum:Temp:Abs-Feuchte:Windchill:Wind:
Aussen-T/F 126 24-12-2019 10:25:00 7.3 C 7.19 g/m*3 7.3 C 4.8 km/h
127 24-12-2019 10:30:00 7.3 C 7.19 g/m*3 7.3 C 0 km/h
128 24-12-2019 10:35:00 7.3 C 7.27 g/m*3 7.3 C 0 km/h
129 24-12-2019 10:40:00 7.3 C 7.27 g/m*3 7.3 C 0 km/h
130 24-12-2019 10:45:00 7.4 C 7.4 g/m*3 7.4 C 1.6 km/h
131 24-12-2019 10:50:00 7.4 C 7.4 g/m*3 7.4 C 4.8 km/h
132 24-12-2019 10:55:00 7.4 C 7.4 g/m*3 7.4 C 0 km/h
133 24-12-2019 11:00:00 7.4 C 7.32 g/m*3 7.4 C 1.6 km/h
134 24-12-2019 11:05:00 7.4 C 7.4 g/m*3 7.4 C 4.8 km/h
135 24-12-2019 11:10:00 7.5 C 7.44 g/m*3 7.5 C 1.6 km/h
136 24-12-2019 11:15:00 7.6 C 7.49 g/m*3 6.6 C 6.4 km/h
137 24-12-2019 11:20:00 7.7 C 7.54 g/m*3 6.71 C 6.4 km/h
138 24-12-2019 11:25:00 7.8 C 7.59 g/m*3 7.8 C 1.6 km/h
139 24-12-2019 11:30:00 7.8 C 7.59 g/m*3 6.83 C 6.4 km/h
140 24-12-2019 11:35:00 8 C 7.61 g/m*3 7.06 C 6.4 km/h
141 24-12-2019 11:40:00 8.2 C 7.7 g/m*3 7.29 C 6.4 km/h
142 24-12-2019 11:45:00 8.3 C 7.75 g/m*3 6.99 C 8.1 km/h
143 24-12-2019 11:50:00 8.3 C 7.67 g/m*3 5.68 C 16.1 km/h
144 24-12-2019 11:55:00 8.3 C 7.67 g/m*3 6.12 C 12.9 km/h
145 24-12-2019 12:00:00 8.4 C 7.72 g/m*3 5.61 C 17.7 km/h
146 24-12-2019 12:05:00 8.3 C 7.67 g/m*3 5.48 C 17.7 km/h
147 24-12-2019 12:10:00 8.3 C 7.59 g/m*3 5.48 C 17.7 km/h
148 24-12-2019 12:15:00 8.2 C 7.54 g/m*3 5.99 C 12.9 km/h
149 24-12-2019 12:20:00 8.3 C 7.59 g/m*3 5.89 C 14.5 km/h
150 24-12-2019 12:25:00 8.3 C 7.5 g/m*3 6.12 C 12.9 km/h
Sensor: Nr:Datum:Temp:Abs-Feuchte:Windchill:Wind:
Aussen-T/F 151 24-12-2019 12:30:00 8.4 C 7.55 g/m*3 5.8 C 16.1 km/h
152 24-12-2019 12:35:00 8.6 C 7.56 g/m*3 6.73 C 11.3 km/h
153 24-12-2019 12:40:00 8.7 C 7.61 g/m*3 6.38 C 14.5 km/h
154 24-12-2019 12:45:00 8.7 C 7.61 g/m*3 7.13 C 9.7 km/h
155 24-12-2019 12:50:00 8.8 C 7.66 g/m*3 5.93 C 19.3 km/h
156 24-12-2019 12:55:00 9 C 7.67 g/m*3 6.97 C 12.9 km/h
157 24-12-2019 13:00:00 9.2 C 7.77 g/m*3 8.05 C 8.1 km/h
158 24-12-2019 13:05:00 9.3 C 7.82 g/m*3 7.85 C 9.7 km/h
159 24-12-2019 13:10:00 9.4 C 7.78 g/m*3 7.46 C 12.9 km/h
160 24-12-2019 13:15:00 9.4 C 7.78 g/m*3 8.68 C 6.4 km/h
161 24-12-2019 13:20:00 9.5 C 7.83 g/m*3 7.82 C 11.3 km/h
162 24-12-2019 13:25:00 9.5 C 7.83 g/m*3 7.58 C 12.9 km/h
163 24-12-2019 13:30:00 9.6 C 7.88 g/m*3 7.7 C 12.9 km/h
164 24-12-2019 13:35:00 9.6 C 7.88 g/m*3 8.21 C 9.7 km/h
165 24-12-2019 13:40:00 9.6 C 7.88 g/m*3 7.94 C 11.3 km/h
166 24-12-2019 13:45:00 9.6 C 7.88 g/m*3 8.21 C 9.7 km/h
167 24-12-2019 13:50:00 9.6 C 7.88 g/m*3 7.94 C 11.3 km/h
168 24-12-2019 13:55:00 9.7 C 7.93 g/m*3 7.82 C 12.9 km/h
169 24-12-2019 14:00:00 9.7 C 7.84 g/m*3 7.41 C 16.1 km/h
170 24-12-2019 14:05:00 9.7 C 7.84 g/m*3 7.23 C 17.7 km/h
171 24-12-2019 14:10:00 9.8 C 7.89 g/m*3 7.73 C 14.5 km/h
172 24-12-2019 14:15:00 9.8 C 7.89 g/m*3 7.19 C 19.3 km/h
173 24-12-2019 14:20:00 9.8 C 7.89 g/m*3 7.94 C 12.9 km/h
174 24-12-2019 14:25:00 9.9 C 7.94 g/m*3 8.56 C 9.7 km/h
175 24-12-2019 14:30:00 9.9 C 7.94 g/m*3 8.3 C 11.3 km/h
Sensor: Nr:Datum:Temp:Abs-Feuchte:Windchill:Wind:
Aussen-T/F 176 24-12-2019 14:35:00 9.9 C 7.84 g/m*3 8.3 C 11.3 km/h
177 24-12-2019 14:40:00 10 C 7.99 g/m*3 8.42 C 11.3 km/h
178 24-12-2019 14:45:00 10 C 8.08 g/m*3 7.78 C 16.1 km/h
179 24-12-2019 14:50:00 9.9 C 8.03 g/m*3 8.06 C 12.9 km/h
180 24-12-2019 14:55:00 9.9 C 8.12 g/m*3 8.56 C 9.7 km/h
181 24-12-2019 15:00:00 9.8 C 7.98 g/m*3 7.94 C 12.9 km/h
182 24-12-2019 15:05:00 9.8 C 8.07 g/m*3 8.45 C 9.7 km/h
183 24-12-2019 15:10:00 9.8 C 7.98 g/m*3 8.45 C 9.7 km/h
184 24-12-2019 15:15:00 9.8 C 7.89 g/m*3 7.94 C 12.9 km/h
185 24-12-2019 15:20:00 9.9 C 7.84 g/m*3 8.87 C 8.1 km/h
186 24-12-2019 15:25:00 9.9 C 7.84 g/m*3 8.87 C 8.1 km/h
187 24-12-2019 15:30:00 10 C 7.8 g/m*3 8.99 C 8.1 km/h
188 24-12-2019 15:35:00 10.1 C 7.75 g/m*3 8.8 C 9.7 km/h
189 24-12-2019 15:40:00 10.2 C 7.8 g/m*3 8.22 C 14.5 km/h
190 24-12-2019 15:45:00 10.3 C 7.76 g/m*3 8.55 C 12.9 km/h
191 24-12-2019 15:50:00 10.3 C 7.76 g/m*3 8.78 C 11.3 km/h
192 24-12-2019 15:55:00 10.4 C 7.61 g/m*3 8.11 C 17.7 km/h
193 24-12-2019 16:00:00 10.4 C 7.71 g/m*3 8.9 C 11.3 km/h
194 24-12-2019 16:05:00 10.4 C 7.61 g/m*3 8.9 C 11.3 km/h
195 24-12-2019 16:10:00 10.4 C 7.61 g/m*3 9.46 C 8.1 km/h
196 24-12-2019 16:15:00 10.4 C 7.61 g/m*3 9.16 C 9.7 km/h
197 24-12-2019 16:20:00 10.4 C 7.61 g/m*3 8.67 C 12.9 km/h
198 24-12-2019 16:25:00 10.4 C 7.61 g/m*3 8.67 C 12.9 km/h
199 24-12-2019 16:30:00 10.3 C 7.66 g/m*3 10.3 C 4.8 km/h
200 24-12-2019 16:35:00 10.3 C 7.66 g/m*3 9.72 C 6.4 km/h
Sensor: Nr:Datum:Temp:Abs-Feuchte:Windchill:Wind:
Aussen-T/F 201 24-12-2019 16:40:00 10.2 C 7.71 g/m*3 9.22 C 8.1 km/h
202 24-12-2019 16:45:00 10 C 7.61 g/m*3 9.37 C 6.4 km/h
203 24-12-2019 16:50:00 10 C 7.61 g/m*3 8.42 C 11.3 km/h
204 24-12-2019 16:55:00 10.1 C 7.56 g/m*3 8.54 C 11.3 km/h
205 24-12-2019 17:00:00 10.1 C 7.56 g/m*3 8.54 C 11.3 km/h
206 24-12-2019 17:05:00 10.1 C 7.56 g/m*3 8.8 C 9.7 km/h
207 24-12-2019 17:10:00 10.1 C 7.56 g/m*3 8.1 C 14.5 km/h
208 24-12-2019 17:15:00 10 C 7.52 g/m*3 7.78 C 16.1 km/h
209 24-12-2019 17:20:00 9.9 C 7.47 g/m*3 8.3 C 11.3 km/h
210 24-12-2019 17:25:00 9.8 C 7.33 g/m*3 7.73 C 14.5 km/h
211 24-12-2019 17:30:00 9.8 C 7.33 g/m*3 8.18 C 11.3 km/h
212 24-12-2019 17:35:00 9.8 C 7.42 g/m*3 7.54 C 16.1 km/h
213 24-12-2019 17:40:00 9.7 C 7.38 g/m*3 8.06 C 11.3 km/h
214 24-12-2019 17:45:00 9.6 C 7.33 g/m*3 7.29 C 16.1 km/h
215 24-12-2019 17:50:00 9.6 C 7.33 g/m*3 8.52 C 8.1 km/h
216 24-12-2019 17:55:00 9.6 C 7.33 g/m*3 8.52 C 8.1 km/h
217 24-12-2019 18:00:00 9.6 C 7.33 g/m*3 8.52 C 8.1 km/h
218 24-12-2019 18:05:00 9.6 C 7.51 g/m*3 8.52 C 8.1 km/h
219 24-12-2019 18:10:00 9.5 C 7.55 g/m*3 8.09 C 9.7 km/h
220 24-12-2019 18:15:00 9.4 C 7.6 g/m*3 8.68 C 6.4 km/h
221 24-12-2019 18:20:00 9.3 C 7.55 g/m*3 8.56 C 6.4 km/h
222 24-12-2019 18:25:00 9.3 C 7.55 g/m*3 7.58 C 11.3 km/h
223 24-12-2019 18:30:00 9.3 C 7.64 g/m*3 8.56 C 6.4 km/h
224 24-12-2019 18:35:00 9.3 C 7.73 g/m*3 6.73 C 17.7 km/h
225 24-12-2019 18:40:00 9.1 C 7.72 g/m*3 7.61 C 9.7 km/h
Sensor: Nr:Datum:Temp:Abs-Feuchte:Windchill:Wind:
Aussen-T/F 226 24-12-2019 18:45:00 9 C 7.76 g/m*3 9 C 4.8 km/h
227 24-12-2019 18:50:00 8.8 C 7.75 g/m*3 7.25 C 9.7 km/h
228 24-12-2019 18:55:00 8.6 C 7.73 g/m*3 7.01 C 9.7 km/h
229 24-12-2019 19:00:00 8.4 C 7.63 g/m*3 5.8 C 16.1 km/h
230 24-12-2019 19:05:00 8.3 C 7.59 g/m*3 5.68 C 16.1 km/h
231 24-12-2019 19:10:00 8.2 C 7.45 g/m*3 5.99 C 12.9 km/h
232 24-12-2019 19:15:00 8 C 7.44 g/m*3 5.52 C 14.5 km/h
233 24-12-2019 19:20:00 7.8 C 7.35 g/m*3 6.4 C 8.1 km/h
234 24-12-2019 19:25:00 7.7 C 7.38 g/m*3 7.7 C 4.8 km/h
235 24-12-2019 19:30:00 7.5 C 7.28 g/m*3 6.48 C 6.4 km/h
236 24-12-2019 19:35:00 7.4 C 7.32 g/m*3 5.93 C 8.1 km/h
237 24-12-2019 19:40:00 7.3 C 7.27 g/m*3 5.81 C 8.1 km/h
238 24-12-2019 19:45:00 7.2 C 7.22 g/m*3 5.69 C 8.1 km/h
239 24-12-2019 19:50:00 7.2 C 7.3 g/m*3 6.13 C 6.4 km/h
240 24-12-2019 19:55:00 7.1 C 7.25 g/m*3 5.58 C 8.1 km/h
241 24-12-2019 20:00:00 7.1 C 7.25 g/m*3 7.1 C 3.2 km/h
242 24-12-2019 20:05:00 7.1 C 7.25 g/m*3 5.58 C 8.1 km/h
243 24-12-2019 20:10:00 7.1 C 7.25 g/m*3 5.23 C 9.7 km/h
244 24-12-2019 20:15:00 7.2 C 7.3 g/m*3 6.13 C 6.4 km/h
245 24-12-2019 20:20:00 7.2 C 7.3 g/m*3 7.2 C 4.8 km/h
246 24-12-2019 20:25:00 7.3 C 7.35 g/m*3 5.81 C 8.1 km/h
247 24-12-2019 20:30:00 7.3 C 7.35 g/m*3 5.16 C 11.3 km/h
248 24-12-2019 20:35:00 7.4 C 7.4 g/m*3 6.37 C 6.4 km/h
249 24-12-2019 20:40:00 7.4 C 7.32 g/m*3 6.37 C 6.4 km/h
250 24-12-2019 20:45:00 7.3 C 7.27 g/m*3 5.81 C 8.1 km/h
Sensor: Nr:Datum:Temp:Abs-Feuchte:Windchill:Wind:
Aussen-T/F 251 24-12-2019 20:50:00 7.4 C 7.32 g/m*3 5.02 C 12.9 km/h
252 24-12-2019 20:55:00 7.4 C 7.32 g/m*3 5.28 C 11.3 km/h
253 24-12-2019 21:00:00 7.5 C 7.36 g/m*3 6.05 C 8.1 km/h
254 24-12-2019 21:05:00 7.5 C 7.36 g/m*3 6.05 C 8.1 km/h
255 24-12-2019 21:10:00 7.6 C 7.41 g/m*3 6.16 C 8.1 km/h
256 24-12-2019 21:15:00 7.7 C 7.46 g/m*3 5.65 C 11.3 km/h
257 24-12-2019 21:20:00 7.8 C 7.43 g/m*3 5.77 C 11.3 km/h
258 24-12-2019 21:25:00 7.8 C 7.43 g/m*3 6.06 C 9.7 km/h
259 24-12-2019 21:30:00 7.8 C 7.43 g/m*3 6.83 C 6.4 km/h
260 24-12-2019 21:35:00 7.8 C 7.43 g/m*3 5.51 C 12.9 km/h
261 24-12-2019 21:40:00 8 C 7.52 g/m*3 6.3 C 9.7 km/h
262 24-12-2019 21:45:00 8.1 C 7.49 g/m*3 6.13 C 11.3 km/h
263 24-12-2019 21:50:00 8.3 C 7.5 g/m*3 6.12 C 12.9 km/h
264 24-12-2019 21:55:00 8.3 C 7.42 g/m*3 6.37 C 11.3 km/h
265 24-12-2019 22:00:00 8.5 C 7.51 g/m*3 5.73 C 17.7 km/h
266 24-12-2019 22:05:00 8.7 C 7.52 g/m*3 6.85 C 11.3 km/h
267 24-12-2019 22:10:00 8.7 C 7.44 g/m*3 7.13 C 9.7 km/h
268 24-12-2019 22:15:00 8.7 C 7.44 g/m*3 6.85 C 11.3 km/h
269 24-12-2019 22:20:00 8.7 C 7.44 g/m*3 6.6 C 12.9 km/h
270 24-12-2019 22:25:00 8.7 C 7.44 g/m*3 6.6 C 12.9 km/h
271 24-12-2019 22:30:00 8.7 C 7.44 g/m*3 5.81 C 19.3 km/h
272 24-12-2019 22:35:00 8.7 C 7.44 g/m*3 6.85 C 11.3 km/h
273 24-12-2019 22:40:00 8.7 C 7.44 g/m*3 7.46 C 8.1 km/h
274 24-12-2019 22:45:00 8.7 C 7.52 g/m*3 8.7 C 4.8 km/h
275 24-12-2019 22:50:00 8.7 C 7.52 g/m*3 8.7 C 4.8 km/h
Sensor: Nr:Datum:Temp:Abs-Feuchte:Windchill:Wind:
Aussen-T/F 276 24-12-2019 22:55:00 8.7 C 7.52 g/m*3 8.7 C 4.8 km/h
277 24-12-2019 23:00:00 8.7 C 7.61 g/m*3 6.38 C 14.5 km/h
278 24-12-2019 23:05:00 8.7 C 7.61 g/m*3 7.87 C 6.4 km/h
279 24-12-2019 23:10:00 8.7 C 7.61 g/m*3 6.85 C 11.3 km/h
280 24-12-2019 23:15:00 8.7 C 7.61 g/m*3 7.13 C 9.7 km/h
281 24-12-2019 23:20:00 8.7 C 7.52 g/m*3 6.85 C 11.3 km/h
282 24-12-2019 23:25:00 8.7 C 7.61 g/m*3 6.17 C 16.1 km/h
283 24-12-2019 23:30:00 8.7 C 7.61 g/m*3 6.85 C 11.3 km/h
284 24-12-2019 23:35:00 8.7 C 7.61 g/m*3 7.46 C 8.1 km/h
285 24-12-2019 23:40:00 8.8 C 7.66 g/m*3 6.3 C 16.1 km/h
286 24-12-2019 23:45:00 8.8 C 7.57 g/m*3 7.58 C 8.1 km/h
287 24-12-2019 23:50:00 8.8 C 7.66 g/m*3 6.97 C 11.3 km/h
288 24-12-2019 23:55:00 8.8 C 7.57 g/m*3 6.5 C 14.5 km/h

Legende:
   Min
   Max


Maximal/Minimal-Werte vom 24.12.2019 - 24.12.2019

Sensor Min Max Avg
Temp
(Aussen-T/F)
5.2 °C
24-12-2019  06:40:00
10.4 °C
24-12-2019  15:55:00
7.68 °C
Abs-Feuchte
(Aussen-T/F)
6.45 g/m*3
24-12-2019  06:10:00
8.12 g/m*3
24-12-2019  14:55:00
7.2 g/m*3
Windchill
(Aussen-T/F)
3.92 C
24-12-2019  03:00:00
10.3 C
24-12-2019  16:30:00
6.73 C

Die Daten stammen von einer Davis Vantage Pro 2 Wetter-Station und werden unter Linux mit der Software wview2wettercgi und aufbereitet. Alle Angaben erfolgen ohne Gewähr für ihre Vollständigkeit oder Richtigkeit.
Kontakt: Rainer Krienke krienke@uni-koblenz.de . Meine Webseiten an der Uni Koblenz oder privat.
Version: $Revision: 0.78 $